sensor_id;sensor_type;location;lat;lon;timestamp;P1;durP1;ratioP1;P2;durP2;ratioP2
19101;SDS011;9683;49.028;12.064;2023-12-20T00:00:55;265.45;;;29.60;;
19101;SDS011;9683;49.028;12.064;2023-12-20T00:03:21;267.70;;;20.65;;
19101;SDS011;9683;49.028;12.064;2023-12-20T00:05:49;214.93;;;15.65;;
19101;SDS011;9683;49.028;12.064;2023-12-20T00:08:16;185.98;;;13.18;;
19101;SDS011;9683;49.028;12.064;2023-12-20T00:10:42;248.27;;;17.85;;
19101;SDS011;9683;49.028;12.064;2023-12-20T00:13:09;206.43;;;15.57;;
19101;SDS011;9683;49.028;12.064;2023-12-20T00:15:36;202.52;;;14.55;;
19101;SDS011;9683;49.028;12.064;2023-12-20T00:18:04;201.02;;;14.98;;
19101;SDS011;9683;49.028;12.064;2023-12-20T00:20:31;226.57;;;15.93;;
19101;SDS011;9683;49.028;12.064;2023-12-20T00:22:58;179.93;;;13.70;;
19101;SDS011;9683;49.028;12.064;2023-12-20T00:25:24;190.05;;;13.50;;
19101;SDS011;9683;49.028;12.064;2023-12-20T00:27:51;221.95;;;15.27;;
19101;SDS011;9683;49.028;12.064;2023-12-20T00:30:18;234.52;;;16.05;;
19101;SDS011;9683;49.028;12.064;2023-12-20T00:32:44;188.40;;;16.80;;
19101;SDS011;9683;49.028;12.064;2023-12-20T00:35:13;255.07;;;21.40;;
19101;SDS011;9683;49.028;12.064;2023-12-20T00:37:40;224.45;;;17.67;;
19101;SDS011;9683;49.028;12.064;2023-12-20T00:40:07;210.80;;;15.25;;
19101;SDS011;9683;49.028;12.064;2023-12-20T00:42:34;216.25;;;14.73;;
19101;SDS011;9683;49.028;12.064;2023-12-20T00:45:01;217.32;;;14.32;;
19101;SDS011;9683;49.028;12.064;2023-12-20T00:47:29;198.13;;;13.40;;
19101;SDS011;9683;49.028;12.064;2023-12-20T00:49:56;208.63;;;14.75;;
19101;SDS011;9683;49.028;12.064;2023-12-20T00:52:25;200.95;;;13.88;;
19101;SDS011;9683;49.028;12.064;2023-12-20T00:54:51;222.50;;;15.57;;
19101;SDS011;9683;49.028;12.064;2023-12-20T00:57:18;221.48;;;15.02;;
19101;SDS011;9683;49.028;12.064;2023-12-20T00:59:44;219.20;;;14.82;;
19101;SDS011;9683;49.028;12.064;2023-12-20T01:02:11;181.88;;;12.98;;
19101;SDS011;9683;49.028;12.064;2023-12-20T01:04:37;230.27;;;16.15;;
19101;SDS011;9683;49.028;12.064;2023-12-20T01:07:04;114.63;;;8.43;;
19101;SDS011;9683;49.028;12.064;2023-12-20T01:09:32;106.00;;;10.00;;
19101;SDS011;9683;49.028;12.064;2023-12-20T01:11:58;158.88;;;10.75;;
19101;SDS011;9683;49.028;12.064;2023-12-20T01:14:25;226.85;;;15.27;;
19101;SDS011;9683;49.028;12.064;2023-12-20T01:16:51;204.05;;;14.00;;
19101;SDS011;9683;49.028;12.064;2023-12-20T01:19:18;223.82;;;14.50;;
19101;SDS011;9683;49.028;12.064;2023-12-20T01:21:44;226.57;;;14.90;;
19101;SDS011;9683;49.028;12.064;2023-12-20T01:24:11;199.43;;;14.70;;
19101;SDS011;9683;49.028;12.064;2023-12-20T01:26:39;235.15;;;16.92;;
19101;SDS011;9683;49.028;12.064;2023-12-20T01:29:05;199.10;;;13.18;;
19101;SDS011;9683;49.028;12.064;2023-12-20T01:31:32;216.85;;;14.77;;
19101;SDS011;9683;49.028;12.064;2023-12-20T01:33:58;223.05;;;14.43;;
19101;SDS011;9683;49.028;12.064;2023-12-20T01:36:25;221.90;;;14.45;;
19101;SDS011;9683;49.028;12.064;2023-12-20T01:38:52;209.10;;;15.25;;
19101;SDS011;9683;49.028;12.064;2023-12-20T01:41:18;250.60;;;15.07;;
19101;SDS011;9683;49.028;12.064;2023-12-20T01:43:46;233.20;;;15.68;;
19101;SDS011;9683;49.028;12.064;2023-12-20T01:46:13;207.98;;;14.75;;
19101;SDS011;9683;49.028;12.064;2023-12-20T01:48:40;209.32;;;14.65;;
19101;SDS011;9683;49.028;12.064;2023-12-20T01:51:07;119.95;;;9.40;;
19101;SDS011;9683;49.028;12.064;2023-12-20T01:53:34;103.40;;;8.32;;
19101;SDS011;9683;49.028;12.064;2023-12-20T01:56:01;229.10;;;14.27;;
19101;SDS011;9683;49.028;12.064;2023-12-20T01:58:27;229.02;;;14.52;;
19101;SDS011;9683;49.028;12.064;2023-12-20T02:00:56;216.73;;;15.35;;
19101;SDS011;9683;49.028;12.064;2023-12-20T02:03:23;199.02;;;13.38;;
19101;SDS011;9683;49.028;12.064;2023-12-20T02:05:50;215.27;;;16.00;;
19101;SDS011;9683;49.028;12.064;2023-12-20T02:08:16;211.95;;;14.80;;
19101;SDS011;9683;49.028;12.064;2023-12-20T02:10:43;270.08;;;18.27;;
19101;SDS011;9683;49.028;12.064;2023-12-20T02:13:10;178.02;;;12.77;;
19101;SDS011;9683;49.028;12.064;2023-12-20T02:15:36;247.50;;;15.93;;
19101;SDS011;9683;49.028;12.064;2023-12-20T02:20:32;232.00;;;15.35;;
19101;SDS011;9683;49.028;12.064;2023-12-20T02:23:00;208.70;;;14.00;;
19101;SDS011;9683;49.028;12.064;2023-12-20T02:25:27;227.73;;;14.45;;
19101;SDS011;9683;49.028;12.064;2023-12-20T02:27:53;236.88;;;15.30;;
19101;SDS011;9683;49.028;12.064;2023-12-20T02:30:20;212.30;;;15.52;;
19101;SDS011;9683;49.028;12.064;2023-12-20T02:32:46;206.43;;;13.82;;
19101;SDS011;9683;49.028;12.064;2023-12-20T02:35:14;243.00;;;15.23;;
19101;SDS011;9683;49.028;12.064;2023-12-20T02:37:40;191.65;;;13.20;;
19101;SDS011;9683;49.028;12.064;2023-12-20T02:40:09;192.52;;;12.57;;
19101;SDS011;9683;49.028;12.064;2023-12-20T02:42:35;231.50;;;14.77;;
19101;SDS011;9683;49.028;12.064;2023-12-20T02:45:02;203.07;;;13.07;;
19101;SDS011;9683;49.028;12.064;2023-12-20T02:47:29;195.70;;;12.45;;
19101;SDS011;9683;49.028;12.064;2023-12-20T02:49:56;239.38;;;15.10;;
19101;SDS011;9683;49.028;12.064;2023-12-20T02:52:22;209.27;;;13.68;;
19101;SDS011;9683;49.028;12.064;2023-12-20T02:54:49;209.38;;;13.35;;
19101;SDS011;9683;49.028;12.064;2023-12-20T02:57:17;205.80;;;13.15;;
19101;SDS011;9683;49.028;12.064;2023-12-20T02:59:43;233.40;;;14.20;;
19101;SDS011;9683;49.028;12.064;2023-12-20T03:02:10;200.15;;;12.70;;
19101;SDS011;9683;49.028;12.064;2023-12-20T03:04:36;243.75;;;15.57;;
19101;SDS011;9683;49.028;12.064;2023-12-20T03:07:03;223.25;;;14.05;;
19101;SDS011;9683;49.028;12.064;2023-12-20T03:09:29;212.57;;;13.55;;
19101;SDS011;9683;49.028;12.064;2023-12-20T03:11:56;215.27;;;13.57;;
19101;SDS011;9683;49.028;12.064;2023-12-20T03:14:24;232.43;;;14.27;;
19101;SDS011;9683;49.028;12.064;2023-12-20T03:16:50;188.65;;;12.32;;
19101;SDS011;9683;49.028;12.064;2023-12-20T03:19:17;176.15;;;12.18;;
19101;SDS011;9683;49.028;12.064;2023-12-20T03:21:44;220.68;;;13.90;;
19101;SDS011;9683;49.028;12.064;2023-12-20T03:24:11;210.23;;;13.32;;
19101;SDS011;9683;49.028;12.064;2023-12-20T03:26:38;223.63;;;13.77;;
19101;SDS011;9683;49.028;12.064;2023-12-20T03:29:04;244.93;;;15.50;;
19101;SDS011;9683;49.028;12.064;2023-12-20T03:31:32;259.95;;;15.80;;
19101;SDS011;9683;49.028;12.064;2023-12-20T03:33:58;210.60;;;12.90;;
19101;SDS011;9683;49.028;12.064;2023-12-20T03:36:25;243.32;;;14.32;;
19101;SDS011;9683;49.028;12.064;2023-12-20T03:38:51;237.90;;;14.32;;
19101;SDS011;9683;49.028;12.064;2023-12-20T03:41:18;219.30;;;13.50;;
19101;SDS011;9683;49.028;12.064;2023-12-20T03:43:44;221.60;;;13.40;;
19101;SDS011;9683;49.028;12.064;2023-12-20T03:46:11;219.18;;;13.77;;
19101;SDS011;9683;49.028;12.064;2023-12-20T03:48:39;247.32;;;14.35;;
19101;SDS011;9683;49.028;12.064;2023-12-20T03:51:05;216.95;;;13.98;;
19101;SDS011;9683;49.028;12.064;2023-12-20T03:53:32;240.13;;;14.55;;
19101;SDS011;9683;49.028;12.064;2023-12-20T03:55:58;240.15;;;14.68;;
19101;SDS011;9683;49.028;12.064;2023-12-20T03:58:25;212.98;;;13.52;;
19101;SDS011;9683;49.028;12.064;2023-12-20T04:00:51;285.70;;;18.95;;
19101;SDS011;9683;49.028;12.064;2023-12-20T04:03:18;190.50;;;33.33;;
19101;SDS011;9683;49.028;12.064;2023-12-20T04:05:46;141.50;;;33.60;;
19101;SDS011;9683;49.028;12.064;2023-12-20T04:08:12;191.02;;;33.95;;
19101;SDS011;9683;49.028;12.064;2023-12-20T04:10:39;282.90;;;39.05;;
19101;SDS011;9683;49.028;12.064;2023-12-20T04:13:05;285.17;;;39.92;;
19101;SDS011;9683;49.028;12.064;2023-12-20T04:15:32;258.38;;;37.92;;
19101;SDS011;9683;49.028;12.064;2023-12-20T04:17:59;250.88;;;35.92;;
19101;SDS011;9683;49.028;12.064;2023-12-20T04:20:26;265.25;;;35.58;;
19101;SDS011;9683;49.028;12.064;2023-12-20T04:22:53;253.45;;;36.97;;
19101;SDS011;9683;49.028;12.064;2023-12-20T04:25:20;220.00;;;34.30;;
19101;SDS011;9683;49.028;12.064;2023-12-20T04:27:46;267.98;;;38.25;;
19101;SDS011;9683;49.028;12.064;2023-12-20T04:30:13;259.17;;;38.40;;
19101;SDS011;9683;49.028;12.064;2023-12-20T04:32:40;215.20;;;36.58;;
19101;SDS011;9683;49.028;12.064;2023-12-20T04:35:06;237.38;;;35.47;;
19101;SDS011;9683;49.028;12.064;2023-12-20T04:37:33;249.52;;;37.38;;
19101;SDS011;9683;49.028;12.064;2023-12-20T04:40:01;246.07;;;33.97;;
19101;SDS011;9683;49.028;12.064;2023-12-20T04:42:28;252.73;;;36.13;;
19101;SDS011;9683;49.028;12.064;2023-12-20T04:44:54;256.50;;;40.05;;
19101;SDS011;9683;49.028;12.064;2023-12-20T04:47:21;231.82;;;35.90;;
19101;SDS011;9683;49.028;12.064;2023-12-20T04:49:48;181.60;;;33.80;;
19101;SDS011;9683;49.028;12.064;2023-12-20T04:52:14;165.00;;;32.72;;
19101;SDS011;9683;49.028;12.064;2023-12-20T04:54:41;244.57;;;34.13;;
19101;SDS011;9683;49.028;12.064;2023-12-20T04:57:08;219.27;;;35.08;;
19101;SDS011;9683;49.028;12.064;2023-12-20T04:59:35;229.48;;;34.85;;
19101;SDS011;9683;49.028;12.064;2023-12-20T05:02:02;224.88;;;34.75;;
19101;SDS011;9683;49.028;12.064;2023-12-20T05:04:28;263.33;;;34.38;;
19101;SDS011;9683;49.028;12.064;2023-12-20T05:06:55;241.02;;;32.50;;
19101;SDS011;9683;49.028;12.064;2023-12-20T05:09:21;235.07;;;30.67;;
19101;SDS011;9683;49.028;12.064;2023-12-20T05:11:48;221.93;;;30.42;;
19101;SDS011;9683;49.028;12.064;2023-12-20T05:14:16;244.23;;;34.03;;
19101;SDS011;9683;49.028;12.064;2023-12-20T05:16:42;213.35;;;33.00;;
19101;SDS011;9683;49.028;12.064;2023-12-20T05:19:09;272.40;;;39.92;;
19101;SDS011;9683;49.028;12.064;2023-12-20T05:21:36;251.45;;;39.17;;
19101;SDS011;9683;49.028;12.064;2023-12-20T05:24:02;263.77;;;38.15;;
19101;SDS011;9683;49.028;12.064;2023-12-20T05:26:29;213.93;;;32.17;;
19101;SDS011;9683;49.028;12.064;2023-12-20T05:28:56;286.35;;;37.08;;
19101;SDS011;9683;49.028;12.064;2023-12-20T05:31:24;210.27;;;35.70;;
19101;SDS011;9683;49.028;12.064;2023-12-20T05:33:50;219.43;;;34.05;;
19101;SDS011;9683;49.028;12.064;2023-12-20T05:36:17;216.27;;;32.53;;
19101;SDS011;9683;49.028;12.064;2023-12-20T05:38:44;259.80;;;36.42;;
19101;SDS011;9683;49.028;12.064;2023-12-20T05:41:10;250.98;;;37.70;;
19101;SDS011;9683;49.028;12.064;2023-12-20T05:43:37;261.25;;;37.08;;
19101;SDS011;9683;49.028;12.064;2023-12-20T05:46:03;267.85;;;40.25;;
19101;SDS011;9683;49.028;12.064;2023-12-20T05:48:31;256.27;;;37.55;;
19101;SDS011;9683;49.028;12.064;2023-12-20T05:50:57;279.48;;;38.10;;
19101;SDS011;9683;49.028;12.064;2023-12-20T05:53:24;254.00;;;37.88;;
19101;SDS011;9683;49.028;12.064;2023-12-20T05:55:50;283.00;;;39.15;;
19101;SDS011;9683;49.028;12.064;2023-12-20T05:58:17;267.00;;;37.00;;
19101;SDS011;9683;49.028;12.064;2023-12-20T06:00:43;245.23;;;36.55;;
19101;SDS011;9683;49.028;12.064;2023-12-20T06:03:10;248.43;;;36.22;;
19101;SDS011;9683;49.028;12.064;2023-12-20T06:05:38;248.52;;;14.48;;
19101;SDS011;9683;49.028;12.064;2023-12-20T06:08:04;221.23;;;12.93;;
19101;SDS011;9683;49.028;12.064;2023-12-20T06:10:31;260.05;;;15.20;;
19101;SDS011;9683;49.028;12.064;2023-12-20T06:12:58;226.32;;;13.02;;
19101;SDS011;9683;49.028;12.064;2023-12-20T06:15:25;181.50;;;10.55;;
19101;SDS011;9683;49.028;12.064;2023-12-20T06:17:52;174.63;;;10.38;;
19101;SDS011;9683;49.028;12.064;2023-12-20T06:20:19;181.45;;;10.73;;
19101;SDS011;9683;49.028;12.064;2023-12-20T06:22:46;256.80;;;14.93;;
19101;SDS011;9683;49.028;12.064;2023-12-20T06:25:13;185.40;;;11.00;;
19101;SDS011;9683;49.028;12.064;2023-12-20T06:27:39;245.57;;;13.82;;
19101;SDS011;9683;49.028;12.064;2023-12-20T06:30:06;186.00;;;11.65;;
19101;SDS011;9683;49.028;12.064;2023-12-20T06:32:34;231.75;;;12.95;;
19101;SDS011;9683;49.028;12.064;2023-12-20T06:35:00;227.27;;;13.55;;
19101;SDS011;9683;49.028;12.064;2023-12-20T06:37:27;246.77;;;13.63;;
19101;SDS011;9683;49.028;12.064;2023-12-20T06:39:55;243.38;;;13.35;;
19101;SDS011;9683;49.028;12.064;2023-12-20T06:42:22;247.18;;;13.20;;
19101;SDS011;9683;49.028;12.064;2023-12-20T06:44:49;218.18;;;12.13;;
19101;SDS011;9683;49.028;12.064;2023-12-20T06:47:16;223.98;;;12.20;;
19101;SDS011;9683;49.028;12.064;2023-12-20T06:49:42;229.38;;;12.65;;
19101;SDS011;9683;49.028;12.064;2023-12-20T06:52:09;97.07;;;5.72;;
19101;SDS011;9683;49.028;12.064;2023-12-20T06:54:35;83.90;;;5.55;;
19101;SDS011;9683;49.028;12.064;2023-12-20T06:57:03;142.23;;;8.00;;
19101;SDS011;9683;49.028;12.064;2023-12-20T06:59:30;190.07;;;10.55;;
19101;SDS011;9683;49.028;12.064;2023-12-20T07:01:56;127.75;;;7.10;;
19101;SDS011;9683;49.028;12.064;2023-12-20T07:04:23;100.70;;;5.85;;
19101;SDS011;9683;49.028;12.064;2023-12-20T07:06:49;187.57;;;10.30;;
19101;SDS011;9683;49.028;12.064;2023-12-20T07:09:18;259.63;;;15.48;;
19101;SDS011;9683;49.028;12.064;2023-12-20T07:11:45;263.15;;;14.25;;
19101;SDS011;9683;49.028;12.064;2023-12-20T07:14:13;229.13;;;12.70;;
19101;SDS011;9683;49.028;12.064;2023-12-20T07:16:39;183.60;;;10.13;;
19101;SDS011;9683;49.028;12.064;2023-12-20T07:19:06;231.43;;;12.95;;
19101;SDS011;9683;49.028;12.064;2023-12-20T07:21:32;204.32;;;11.30;;
19101;SDS011;9683;49.028;12.064;2023-12-20T07:23:59;240.32;;;13.27;;
19101;SDS011;9683;49.028;12.064;2023-12-20T07:26:25;214.88;;;11.88;;
19101;SDS011;9683;49.028;12.064;2023-12-20T07:28:52;211.13;;;11.85;;
19101;SDS011;9683;49.028;12.064;2023-12-20T07:31:20;214.50;;;11.98;;
19101;SDS011;9683;49.028;12.064;2023-12-20T07:33:46;248.35;;;13.90;;
19101;SDS011;9683;49.028;12.064;2023-12-20T07:36:13;225.57;;;12.35;;
19101;SDS011;9683;49.028;12.064;2023-12-20T07:38:39;208.95;;;11.52;;
19101;SDS011;9683;49.028;12.064;2023-12-20T07:41:08;223.77;;;12.48;;
19101;SDS011;9683;49.028;12.064;2023-12-20T07:43:35;234.82;;;12.90;;
19101;SDS011;9683;49.028;12.064;2023-12-20T07:46:05;191.82;;;10.63;;
19101;SDS011;9683;49.028;12.064;2023-12-20T07:48:33;197.00;;;10.98;;
19101;SDS011;9683;49.028;12.064;2023-12-20T07:51:00;208.30;;;11.45;;
19101;SDS011;9683;49.028;12.064;2023-12-20T07:53:27;206.88;;;11.40;;
19101;SDS011;9683;49.028;12.064;2023-12-20T07:55:53;235.13;;;13.55;;
19101;SDS011;9683;49.028;12.064;2023-12-20T07:58:20;222.10;;;12.45;;
19101;SDS011;9683;49.028;12.064;2023-12-20T08:00:47;248.82;;;14.57;;
19101;SDS011;9683;49.028;12.064;2023-12-20T08:03:13;210.27;;;11.65;;
19101;SDS011;9683;49.028;12.064;2023-12-20T08:05:41;202.23;;;11.30;;
19101;SDS011;9683;49.028;12.064;2023-12-20T08:08:08;218.07;;;12.15;;
19101;SDS011;9683;49.028;12.064;2023-12-20T08:10:34;222.30;;;12.13;;
19101;SDS011;9683;49.028;12.064;2023-12-20T08:13:01;212.75;;;11.90;;
19101;SDS011;9683;49.028;12.064;2023-12-20T08:15:28;228.57;;;12.77;;
19101;SDS011;9683;49.028;12.064;2023-12-20T08:17:54;225.82;;;12.55;;
19101;SDS011;9683;49.028;12.064;2023-12-20T08:20:21;241.85;;;13.18;;
19101;SDS011;9683;49.028;12.064;2023-12-20T08:22:49;227.70;;;12.52;;
19101;SDS011;9683;49.028;12.064;2023-12-20T08:25:15;256.23;;;14.13;;
19101;SDS011;9683;49.028;12.064;2023-12-20T08:27:42;220.27;;;12.30;;
19101;SDS011;9683;49.028;12.064;2023-12-20T08:30:09;212.80;;;11.70;;
19101;SDS011;9683;49.028;12.064;2023-12-20T08:32:36;177.35;;;9.90;;
19101;SDS011;9683;49.028;12.064;2023-12-20T08:35:03;222.77;;;12.38;;
19101;SDS011;9683;49.028;12.064;2023-12-20T08:37:31;211.35;;;11.63;;
19101;SDS011;9683;49.028;12.064;2023-12-20T08:39:59;217.77;;;12.35;;
19101;SDS011;9683;49.028;12.064;2023-12-20T08:42:25;212.90;;;11.82;;
19101;SDS011;9683;49.028;12.064;2023-12-20T08:44:56;202.02;;;11.45;;
19101;SDS011;9683;49.028;12.064;2023-12-20T08:47:23;212.30;;;11.88;;
19101;SDS011;9683;49.028;12.064;2023-12-20T08:49:49;228.18;;;12.80;;
19101;SDS011;9683;49.028;12.064;2023-12-20T08:52:16;154.50;;;9.07;;
19101;SDS011;9683;49.028;12.064;2023-12-20T08:54:42;116.93;;;7.03;;
19101;SDS011;9683;49.028;12.064;2023-12-20T08:57:11;60.17;;;4.00;;
19101;SDS011;9683;49.028;12.064;2023-12-20T08:59:37;77.25;;;4.88;;
19101;SDS011;9683;49.028;12.064;2023-12-20T09:02:04;263.33;;;14.55;;
19101;SDS011;9683;49.028;12.064;2023-12-20T09:04:30;202.55;;;11.45;;
19101;SDS011;9683;49.028;12.064;2023-12-20T09:06:59;280.50;;;15.65;;
19101;SDS011;9683;49.028;12.064;2023-12-20T09:09:26;214.45;;;12.13;;
19101;SDS011;9683;49.028;12.064;2023-12-20T09:11:52;233.20;;;12.82;;
19101;SDS011;9683;49.028;12.064;2023-12-20T09:14:20;225.68;;;12.57;;
19101;SDS011;9683;49.028;12.064;2023-12-20T09:16:47;233.95;;;13.13;;
19101;SDS011;9683;49.028;12.064;2023-12-20T09:19:15;236.60;;;13.07;;
19101;SDS011;9683;49.028;12.064;2023-12-20T09:21:42;203.68;;;11.73;;
19101;SDS011;9683;49.028;12.064;2023-12-20T09:24:09;211.38;;;11.98;;
19101;SDS011;9683;49.028;12.064;2023-12-20T09:26:36;209.60;;;12.60;;
19101;SDS011;9683;49.028;12.064;2023-12-20T09:29:02;245.52;;;14.20;;
19101;SDS011;9683;49.028;12.064;2023-12-20T09:31:31;226.75;;;12.77;;
19101;SDS011;9683;49.028;12.064;2023-12-20T09:33:58;239.05;;;13.70;;
19101;SDS011;9683;49.028;12.064;2023-12-20T09:36:24;240.23;;;13.50;;
19101;SDS011;9683;49.028;12.064;2023-12-20T09:38:52;214.57;;;12.38;;
19101;SDS011;9683;49.028;12.064;2023-12-20T09:41:19;250.30;;;14.95;;
19101;SDS011;9683;49.028;12.064;2023-12-20T09:43:45;234.02;;;13.52;;
19101;SDS011;9683;49.028;12.064;2023-12-20T09:46:13;237.98;;;14.10;;
19101;SDS011;9683;49.028;12.064;2023-12-20T09:48:44;214.77;;;12.63;;
19101;SDS011;9683;49.028;12.064;2023-12-20T09:51:11;260.52;;;14.77;;
19101;SDS011;9683;49.028;12.064;2023-12-20T09:53:38;205.95;;;11.90;;
19101;SDS011;9683;49.028;12.064;2023-12-20T09:56:06;209.55;;;12.07;;
19101;SDS011;9683;49.028;12.064;2023-12-20T09:58:35;222.07;;;12.90;;
19101;SDS011;9683;49.028;12.064;2023-12-20T10:01:02;220.57;;;12.68;;
19101;SDS011;9683;49.028;12.064;2023-12-20T10:03:29;226.18;;;12.93;;
19101;SDS011;9683;49.028;12.064;2023-12-20T10:05:58;229.95;;;13.18;;
19101;SDS011;9683;49.028;12.064;2023-12-20T10:08:26;158.05;;;9.25;;
19101;SDS011;9683;49.028;12.064;2023-12-20T10:10:54;227.55;;;14.25;;
19101;SDS011;9683;49.028;12.064;2023-12-20T10:13:22;190.88;;;11.20;;
19101;SDS011;9683;49.028;12.064;2023-12-20T10:15:49;233.20;;;13.15;;
19101;SDS011;9683;49.028;12.064;2023-12-20T10:18:16;202.27;;;11.55;;
19101;SDS011;9683;49.028;12.064;2023-12-20T10:20:42;228.32;;;12.90;;
19101;SDS011;9683;49.028;12.064;2023-12-20T10:23:10;239.85;;;13.50;;
19101;SDS011;9683;49.028;12.064;2023-12-20T10:25:37;206.00;;;11.98;;
19101;SDS011;9683;49.028;12.064;2023-12-20T10:28:10;215.32;;;12.13;;
19101;SDS011;9683;49.028;12.064;2023-12-20T10:30:38;219.60;;;12.32;;
19101;SDS011;9683;49.028;12.064;2023-12-20T10:33:05;214.80;;;11.77;;
19101;SDS011;9683;49.028;12.064;2023-12-20T10:35:32;229.45;;;13.00;;
19101;SDS011;9683;49.028;12.064;2023-12-20T10:38:00;235.43;;;13.13;;
19101;SDS011;9683;49.028;12.064;2023-12-20T10:40:30;264.50;;;14.18;;
19101;SDS011;9683;49.028;12.064;2023-12-20T10:42:58;206.82;;;12.45;;
19101;SDS011;9683;49.028;12.064;2023-12-20T10:45:26;222.38;;;12.32;;
19101;SDS011;9683;49.028;12.064;2023-12-20T10:47:53;220.60;;;12.23;;
19101;SDS011;9683;49.028;12.064;2023-12-20T10:50:19;232.63;;;12.85;;
19101;SDS011;9683;49.028;12.064;2023-12-20T10:52:46;220.43;;;12.60;;
19101;SDS011;9683;49.028;12.064;2023-12-20T10:55:13;205.32;;;11.75;;
19101;SDS011;9683;49.028;12.064;2023-12-20T10:57:41;168.88;;;10.48;;
19101;SDS011;9683;49.028;12.064;2023-12-20T11:00:09;176.75;;;10.25;;
19101;SDS011;9683;49.028;12.064;2023-12-20T11:02:41;182.20;;;10.90;;
19101;SDS011;9683;49.028;12.064;2023-12-20T11:05:10;215.80;;;12.32;;
19101;SDS011;9683;49.028;12.064;2023-12-20T11:07:46;216.10;;;12.32;;
19101;SDS011;9683;49.028;12.064;2023-12-20T11:10:16;211.50;;;11.95;;
19101;SDS011;9683;49.028;12.064;2023-12-20T11:12:48;213.00;;;12.05;;
19101;SDS011;9683;49.028;12.064;2023-12-20T11:15:18;224.95;;;12.70;;
19101;SDS011;9683;49.028;12.064;2023-12-20T11:17:45;245.50;;;14.07;;
19101;SDS011;9683;49.028;12.064;2023-12-20T11:20:12;221.18;;;13.00;;
19101;SDS011;9683;49.028;12.064;2023-12-20T11:22:39;233.80;;;13.32;;
19101;SDS011;9683;49.028;12.064;2023-12-20T11:25:17;226.63;;;12.85;;
19101;SDS011;9683;49.028;12.064;2023-12-20T11:27:43;223.32;;;12.80;;
19101;SDS011;9683;49.028;12.064;2023-12-20T11:30:12;207.20;;;11.85;;
19101;SDS011;9683;49.028;12.064;2023-12-20T11:32:40;240.77;;;13.50;;
19101;SDS011;9683;49.028;12.064;2023-12-20T11:35:18;226.10;;;13.32;;
19101;SDS011;9683;49.028;12.064;2023-12-20T11:37:45;224.18;;;12.75;;
19101;SDS011;9683;49.028;12.064;2023-12-20T11:40:13;213.80;;;14.35;;
19101;SDS011;9683;49.028;12.064;2023-12-20T11:42:42;246.88;;;14.18;;
19101;SDS011;9683;49.028;12.064;2023-12-20T11:45:09;185.13;;;10.77;;
19101;SDS011;9683;49.028;12.064;2023-12-20T11:47:38;225.25;;;13.43;;
19101;SDS011;9683;49.028;12.064;2023-12-20T11:50:05;237.40;;;12.93;;
19101;SDS011;9683;49.028;12.064;2023-12-20T11:52:32;246.68;;;13.85;;
19101;SDS011;9683;49.028;12.064;2023-12-20T11:54:59;210.77;;;12.68;;
19101;SDS011;9683;49.028;12.064;2023-12-20T11:57:25;192.40;;;10.82;;
19101;SDS011;9683;49.028;12.064;2023-12-20T11:59:52;190.73;;;12.00;;
19101;SDS011;9683;49.028;12.064;2023-12-20T12:02:18;151.45;;;9.15;;
19101;SDS011;9683;49.028;12.064;2023-12-20T12:04:46;171.68;;;10.35;;
19101;SDS011;9683;49.028;12.064;2023-12-20T12:07:15;220.95;;;12.90;;
19101;SDS011;9683;49.028;12.064;2023-12-20T12:09:42;214.30;;;12.13;;
19101;SDS011;9683;49.028;12.064;2023-12-20T12:12:08;208.77;;;13.00;;
19101;SDS011;9683;49.028;12.064;2023-12-20T12:14:37;235.45;;;14.05;;
19101;SDS011;9683;49.028;12.064;2023-12-20T12:17:03;190.68;;;10.80;;
19101;SDS011;9683;49.028;12.064;2023-12-20T12:19:30;188.50;;;11.02;;
19101;SDS011;9683;49.028;12.064;2023-12-20T12:22:05;215.10;;;12.35;;
19101;SDS011;9683;49.028;12.064;2023-12-20T12:24:33;231.23;;;14.23;;
19101;SDS011;9683;49.028;12.064;2023-12-20T12:27:00;219.10;;;12.32;;
19101;SDS011;9683;49.028;12.064;2023-12-20T12:29:27;188.90;;;10.85;;
19101;SDS011;9683;49.028;12.064;2023-12-20T12:31:53;233.50;;;12.60;;
19101;SDS011;9683;49.028;12.064;2023-12-20T12:34:20;197.00;;;10.98;;
19101;SDS011;9683;49.028;12.064;2023-12-20T12:36:47;185.60;;;10.40;;
19101;SDS011;9683;49.028;12.064;2023-12-20T12:39:16;216.55;;;12.07;;
19101;SDS011;9683;49.028;12.064;2023-12-20T12:41:43;194.50;;;11.63;;
19101;SDS011;9683;49.028;12.064;2023-12-20T12:44:10;196.95;;;11.30;;
19101;SDS011;9683;49.028;12.064;2023-12-20T12:46:36;224.05;;;12.65;;
19101;SDS011;9683;49.028;12.064;2023-12-20T12:49:03;176.15;;;10.05;;
19101;SDS011;9683;49.028;12.064;2023-12-20T12:51:30;134.15;;;7.95;;
19101;SDS011;9683;49.028;12.064;2023-12-20T12:53:56;141.10;;;9.00;;
19101;SDS011;9683;49.028;12.064;2023-12-20T12:56:24;200.23;;;11.52;;
19101;SDS011;9683;49.028;12.064;2023-12-20T12:58:51;220.20;;;11.77;;
19101;SDS011;9683;49.028;12.064;2023-12-20T13:01:17;181.43;;;10.82;;
19101;SDS011;9683;49.028;12.064;2023-12-20T13:03:44;207.32;;;12.10;;
19101;SDS011;9683;49.028;12.064;2023-12-20T13:06:10;200.15;;;11.25;;
19101;SDS011;9683;49.028;12.064;2023-12-20T13:08:37;202.32;;;11.75;;
19101;SDS011;9683;49.028;12.064;2023-12-20T13:11:03;202.75;;;11.45;;
19101;SDS011;9683;49.028;12.064;2023-12-20T13:13:31;218.73;;;13.18;;
19101;SDS011;9683;49.028;12.064;2023-12-20T13:15:58;186.60;;;11.50;;
19101;SDS011;9683;49.028;12.064;2023-12-20T13:18:26;215.40;;;12.38;;
19101;SDS011;9683;49.028;12.064;2023-12-20T13:20:52;232.38;;;14.35;;
19101;SDS011;9683;49.028;12.064;2023-12-20T13:23:19;179.57;;;10.95;;
19101;SDS011;9683;49.028;12.064;2023-12-20T13:25:45;216.52;;;12.38;;
19101;SDS011;9683;49.028;12.064;2023-12-20T13:28:12;214.68;;;11.90;;
19101;SDS011;9683;49.028;12.064;2023-12-20T13:30:40;179.90;;;10.10;;
19101;SDS011;9683;49.028;12.064;2023-12-20T13:33:07;216.73;;;12.18;;
19101;SDS011;9683;49.028;12.064;2023-12-20T13:35:33;128.13;;;7.80;;
19101;SDS011;9683;49.028;12.064;2023-12-20T13:38:00;126.20;;;8.10;;
19101;SDS011;9683;49.028;12.064;2023-12-20T13:40:27;192.30;;;12.18;;
19101;SDS011;9683;49.028;12.064;2023-12-20T13:42:53;239.80;;;14.48;;
19101;SDS011;9683;49.028;12.064;2023-12-20T13:45:20;230.13;;;12.98;;
19101;SDS011;9683;49.028;12.064;2023-12-20T13:47:48;244.02;;;13.50;;
19101;SDS011;9683;49.028;12.064;2023-12-20T13:50:15;213.68;;;12.23;;
19101;SDS011;9683;49.028;12.064;2023-12-20T13:52:42;205.18;;;12.13;;
19101;SDS011;9683;49.028;12.064;2023-12-20T13:55:08;205.02;;;11.73;;
19101;SDS011;9683;49.028;12.064;2023-12-20T13:57:35;202.75;;;11.80;;
19101;SDS011;9683;49.028;12.064;2023-12-20T14:00:04;235.10;;;13.93;;
19101;SDS011;9683;49.028;12.064;2023-12-20T14:02:31;218.65;;;12.70;;
19101;SDS011;9683;49.028;12.064;2023-12-20T14:04:59;215.05;;;12.25;;
19101;SDS011;9683;49.028;12.064;2023-12-20T14:07:26;219.43;;;14.10;;
19101;SDS011;9683;49.028;12.064;2023-12-20T14:09:54;201.63;;;11.98;;